sensor_id;sensor_type;location;lat;lon;timestamp;temperature;humidity
64634;DHT22;51043;52.406;9.690;2022-10-12T00:00:35;4.10;99.90
64634;DHT22;51043;52.406;9.690;2022-10-12T00:03:02;4.10;99.90
64634;DHT22;51043;52.406;9.690;2022-10-12T00:05:31;4.10;99.90
64634;DHT22;51043;52.406;9.690;2022-10-12T00:07:58;4.10;99.90
64634;DHT22;51043;52.406;9.690;2022-10-12T00:10:25;4.20;99.90
64634;DHT22;51043;52.406;9.690;2022-10-12T00:12:52;4.20;99.90
64634;DHT22;51043;52.406;9.690;2022-10-12T00:15:19;4.20;99.90
64634;DHT22;51043;52.406;9.690;2022-10-12T00:17:46;4.20;99.90
64634;DHT22;51043;52.406;9.690;2022-10-12T00:20:13;4.10;99.90
64634;DHT22;51043;52.406;9.690;2022-10-12T00:22:39;4.10;99.90
64634;DHT22;51043;52.406;9.690;2022-10-12T00:25:07;4.10;99.90
64634;DHT22;51043;52.406;9.690;2022-10-12T00:27:33;4.10;99.90
64634;DHT22;51043;52.406;9.690;2022-10-12T00:30:00;4.10;99.90
64634;DHT22;51043;52.406;9.690;2022-10-12T00:32:28;4.10;99.90
64634;DHT22;51043;52.406;9.690;2022-10-12T00:34:54;4.00;99.90
64634;DHT22;51043;52.406;9.690;2022-10-12T00:37:21;4.00;99.90
64634;DHT22;51043;52.406;9.690;2022-10-12T00:39:55;4.00;99.90
64634;DHT22;51043;52.406;9.690;2022-10-12T00:42:22;4.00;99.90
64634;DHT22;51043;52.406;9.690;2022-10-12T00:44:51;4.00;99.90
64634;DHT22;51043;52.406;9.690;2022-10-12T00:47:25;4.00;99.90
64634;DHT22;51043;52.406;9.690;2022-10-12T00:50:10;4.00;99.90
64634;DHT22;51043;52.406;9.690;2022-10-12T00:52:45;3.90;99.90
64634;DHT22;51043;52.406;9.690;2022-10-12T00:55:15;3.90;99.90
64634;DHT22;51043;52.406;9.690;2022-10-12T00:57:45;3.80;99.90
64634;DHT22;51043;52.406;9.690;2022-10-12T01:00:13;3.80;99.90
64634;DHT22;51043;52.406;9.690;2022-10-12T01:02:41;3.80;99.90
64634;DHT22;51043;52.406;9.690;2022-10-12T01:05:10;3.70;99.90
64634;DHT22;51043;52.406;9.690;2022-10-12T01:07:37;3.70;99.90
64634;DHT22;51043;52.406;9.690;2022-10-12T01:10:04;3.70;99.90
64634;DHT22;51043;52.406;9.690;2022-10-12T01:12:33;3.70;99.90
64634;DHT22;51043;52.406;9.690;2022-10-12T01:15:00;3.70;99.90
64634;DHT22;51043;52.406;9.690;2022-10-12T01:31:42;3.50;99.90
64634;DHT22;51043;52.406;9.690;2022-10-12T01:34:20;3.50;99.90
64634;DHT22;51043;52.406;9.690;2022-10-12T01:36:56;3.50;99.90
64634;DHT22;51043;52.406;9.690;2022-10-12T01:39:33;3.40;99.90
64634;DHT22;51043;52.406;9.690;2022-10-12T01:42:07;3.40;99.90
64634;DHT22;51043;52.406;9.690;2022-10-12T01:44:39;3.40;99.90
64634;DHT22;51043;52.406;9.690;2022-10-12T01:47:08;3.30;99.90
64634;DHT22;51043;52.406;9.690;2022-10-12T01:49:39;3.30;99.90
64634;DHT22;51043;52.406;9.690;2022-10-12T01:52:29;3.30;99.90
64634;DHT22;51043;52.406;9.690;2022-10-12T01:55:09;3.50;99.90
64634;DHT22;51043;52.406;9.690;2022-10-12T02:00:20;3.30;99.90
64634;DHT22;51043;52.406;9.690;2022-10-12T02:03:09;3.20;99.90
64634;DHT22;51043;52.406;9.690;2022-10-12T02:06:18;3.20;99.90
64634;DHT22;51043;52.406;9.690;2022-10-12T02:09:06;3.20;99.90
64634;DHT22;51043;52.406;9.690;2022-10-12T02:11:38;3.20;99.90
64634;DHT22;51043;52.406;9.690;2022-10-12T02:14:20;3.20;99.90
64634;DHT22;51043;52.406;9.690;2022-10-12T02:16:55;3.20;99.90
64634;DHT22;51043;52.406;9.690;2022-10-12T02:19:30;3.20;99.90
64634;DHT22;51043;52.406;9.690;2022-10-12T02:22:01;3.10;99.90
64634;DHT22;51043;52.406;9.690;2022-10-12T02:24:30;3.10;99.90
64634;DHT22;51043;52.406;9.690;2022-10-12T02:26:59;3.10;99.90
64634;DHT22;51043;52.406;9.690;2022-10-12T02:29:33;3.00;99.90
64634;DHT22;51043;52.406;9.690;2022-10-12T02:32:25;3.00;99.90
64634;DHT22;51043;52.406;9.690;2022-10-12T02:35:23;3.00;99.90
64634;DHT22;51043;52.406;9.690;2022-10-12T02:38:02;3.00;99.90
64634;DHT22;51043;52.406;9.690;2022-10-12T02:43:16;3.00;99.90
64634;DHT22;51043;52.406;9.690;2022-10-12T02:45:46;3.00;99.90
64634;DHT22;51043;52.406;9.690;2022-10-12T02:48:20;2.90;99.90
64634;DHT22;51043;52.406;9.690;2022-10-12T02:50:52;2.90;99.90
64634;DHT22;51043;52.406;9.690;2022-10-12T02:53:20;2.90;99.90
64634;DHT22;51043;52.406;9.690;2022-10-12T02:55:50;2.90;99.90
64634;DHT22;51043;52.406;9.690;2022-10-12T02:58:17;2.80;99.90
64634;DHT22;51043;52.406;9.690;2022-10-12T03:00:44;2.80;99.90
64634;DHT22;51043;52.406;9.690;2022-10-12T03:03:11;2.80;99.90
64634;DHT22;51043;52.406;9.690;2022-10-12T03:05:38;2.80;99.90
64634;DHT22;51043;52.406;9.690;2022-10-12T03:08:05;2.80;99.90
64634;DHT22;51043;52.406;9.690;2022-10-12T03:10:32;2.80;99.90
64634;DHT22;51043;52.406;9.690;2022-10-12T03:12:59;2.80;99.90
64634;DHT22;51043;52.406;9.690;2022-10-12T03:15:26;2.70;99.90
64634;DHT22;51043;52.406;9.690;2022-10-12T03:17:52;2.70;99.90
64634;DHT22;51043;52.406;9.690;2022-10-12T03:20:19;2.70;99.90
64634;DHT22;51043;52.406;9.690;2022-10-12T03:22:46;2.70;99.90
64634;DHT22;51043;52.406;9.690;2022-10-12T03:25:13;2.70;99.90
64634;DHT22;51043;52.406;9.690;2022-10-12T03:27:40;2.70;99.90
64634;DHT22;51043;52.406;9.690;2022-10-12T03:30:07;2.70;99.90
64634;DHT22;51043;52.406;9.690;2022-10-12T03:32:34;2.70;99.90
64634;DHT22;51043;52.406;9.690;2022-10-12T03:35:01;2.70;99.90
64634;DHT22;51043;52.406;9.690;2022-10-12T03:37:29;2.70;99.90
64634;DHT22;51043;52.406;9.690;2022-10-12T03:39:56;2.70;99.90
64634;DHT22;51043;52.406;9.690;2022-10-12T03:42:22;2.70;99.90
64634;DHT22;51043;52.406;9.690;2022-10-12T03:44:49;2.70;99.90
64634;DHT22;51043;52.406;9.690;2022-10-12T03:47:17;2.80;99.90
64634;DHT22;51043;52.406;9.690;2022-10-12T03:49:43;2.80;99.90
64634;DHT22;51043;52.406;9.690;2022-10-12T03:52:10;2.80;99.90
64634;DHT22;51043;52.406;9.690;2022-10-12T03:54:37;2.90;99.90
64634;DHT22;51043;52.406;9.690;2022-10-12T03:57:04;2.90;99.90
64634;DHT22;51043;52.406;9.690;2022-10-12T03:59:31;2.90;99.90
64634;DHT22;51043;52.406;9.690;2022-10-12T04:01:57;3.00;99.90
64634;DHT22;51043;52.406;9.690;2022-10-12T04:04:24;3.00;99.90
64634;DHT22;51043;52.406;9.690;2022-10-12T04:06:51;3.00;99.90
64634;DHT22;51043;52.406;9.690;2022-10-12T04:09:18;3.00;99.90
64634;DHT22;51043;52.406;9.690;2022-10-12T04:11:44;2.90;99.90
64634;DHT22;51043;52.406;9.690;2022-10-12T04:14:11;2.90;99.90
64634;DHT22;51043;52.406;9.690;2022-10-12T04:16:38;2.90;99.90
64634;DHT22;51043;52.406;9.690;2022-10-12T04:19:05;2.90;99.90
64634;DHT22;51043;52.406;9.690;2022-10-12T04:21:32;2.90;99.90
64634;DHT22;51043;52.406;9.690;2022-10-12T04:23:58;2.90;99.90
64634;DHT22;51043;52.406;9.690;2022-10-12T04:26:25;2.90;99.90
64634;DHT22;51043;52.406;9.690;2022-10-12T04:28:52;2.90;99.90
64634;DHT22;51043;52.406;9.690;2022-10-12T04:31:19;2.90;99.90
64634;DHT22;51043;52.406;9.690;2022-10-12T04:33:46;2.90;99.90
64634;DHT22;51043;52.406;9.690;2022-10-12T04:36:12;2.90;99.90
64634;DHT22;51043;52.406;9.690;2022-10-12T04:38:39;2.90;99.90
64634;DHT22;51043;52.406;9.690;2022-10-12T04:41:06;2.90;99.90
64634;DHT22;51043;52.406;9.690;2022-10-12T04:43:33;2.90;99.90
64634;DHT22;51043;52.406;9.690;2022-10-12T04:46:00;3.00;99.90
64634;DHT22;51043;52.406;9.690;2022-10-12T04:48:27;2.90;99.90
64634;DHT22;51043;52.406;9.690;2022-10-12T04:50:54;2.90;99.90
64634;DHT22;51043;52.406;9.690;2022-10-12T04:53:21;2.90;99.90
64634;DHT22;51043;52.406;9.690;2022-10-12T04:55:48;2.90;99.90
64634;DHT22;51043;52.406;9.690;2022-10-12T04:58:15;2.80;99.90
64634;DHT22;51043;52.406;9.690;2022-10-12T05:00:41;2.80;99.90
64634;DHT22;51043;52.406;9.690;2022-10-12T05:03:08;2.80;99.90
64634;DHT22;51043;52.406;9.690;2022-10-12T05:05:35;2.80;99.90
64634;DHT22;51043;52.406;9.690;2022-10-12T05:08:04;2.80;99.90
64634;DHT22;51043;52.406;9.690;2022-10-12T05:10:31;2.70;99.90
64634;DHT22;51043;52.406;9.690;2022-10-12T05:12:58;2.70;99.90
64634;DHT22;51043;52.406;9.690;2022-10-12T05:15:25;2.70;99.90
64634;DHT22;51043;52.406;9.690;2022-10-12T05:17:52;2.80;99.90
64634;DHT22;51043;52.406;9.690;2022-10-12T05:20:19;2.70;99.90
64634;DHT22;51043;52.406;9.690;2022-10-12T05:22:46;2.70;99.90
64634;DHT22;51043;52.406;9.690;2022-10-12T05:25:12;2.70;99.90
64634;DHT22;51043;52.406;9.690;2022-10-12T05:27:39;2.70;99.90
64634;DHT22;51043;52.406;9.690;2022-10-12T05:30:07;2.70;99.90
64634;DHT22;51043;52.406;9.690;2022-10-12T05:32:37;2.70;99.90
64634;DHT22;51043;52.406;9.690;2022-10-12T05:35:13;2.60;99.90
64634;DHT22;51043;52.406;9.690;2022-10-12T05:37:40;2.60;99.90
64634;DHT22;51043;52.406;9.690;2022-10-12T05:40:07;2.60;99.90
64634;DHT22;51043;52.406;9.690;2022-10-12T05:42:34;2.70;99.90
64634;DHT22;51043;52.406;9.690;2022-10-12T05:45:02;2.70;99.90
64634;DHT22;51043;52.406;9.690;2022-10-12T05:47:30;2.70;99.90
64634;DHT22;51043;52.406;9.690;2022-10-12T05:49:59;2.70;99.90
64634;DHT22;51043;52.406;9.690;2022-10-12T05:52:30;2.70;99.90
64634;DHT22;51043;52.406;9.690;2022-10-12T05:55:05;2.80;99.90
64634;DHT22;51043;52.406;9.690;2022-10-12T05:57:32;2.80;99.90
64634;DHT22;51043;52.406;9.690;2022-10-12T05:59:59;2.80;99.90
64634;DHT22;51043;52.406;9.690;2022-10-12T06:02:26;2.90;99.90
64634;DHT22;51043;52.406;9.690;2022-10-12T06:04:53;2.90;99.90
64634;DHT22;51043;52.406;9.690;2022-10-12T06:07:20;3.00;99.90
64634;DHT22;51043;52.406;9.690;2022-10-12T06:09:47;3.00;99.90
64634;DHT22;51043;52.406;9.690;2022-10-12T06:12:14;3.10;99.90
64634;DHT22;51043;52.406;9.690;2022-10-12T06:14:42;3.10;99.90
64634;DHT22;51043;52.406;9.690;2022-10-12T06:17:09;3.20;99.90
64634;DHT22;51043;52.406;9.690;2022-10-12T06:19:36;3.30;99.90
64634;DHT22;51043;52.406;9.690;2022-10-12T06:22:06;3.40;99.90
64634;DHT22;51043;52.406;9.690;2022-10-12T06:24:34;3.50;99.90
64634;DHT22;51043;52.406;9.690;2022-10-12T06:27:02;3.60;99.90
64634;DHT22;51043;52.406;9.690;2022-10-12T06:29:29;3.70;99.90
64634;DHT22;51043;52.406;9.690;2022-10-12T06:31:56;3.80;99.90
64634;DHT22;51043;52.406;9.690;2022-10-12T06:34:31;3.90;99.90
64634;DHT22;51043;52.406;9.690;2022-10-12T06:36:58;4.10;99.90
64634;DHT22;51043;52.406;9.690;2022-10-12T06:39:27;4.70;99.90
64634;DHT22;51043;52.406;9.690;2022-10-12T06:41:54;5.50;99.90
64634;DHT22;51043;52.406;9.690;2022-10-12T06:44:26;6.40;99.90
64634;DHT22;51043;52.406;9.690;2022-10-12T06:46:59;7.30;99.90
64634;DHT22;51043;52.406;9.690;2022-10-12T06:49:26;8.20;99.90
64634;DHT22;51043;52.406;9.690;2022-10-12T06:51:53;9.00;99.90
64634;DHT22;51043;52.406;9.690;2022-10-12T06:54:21;9.60;99.90
64634;DHT22;51043;52.406;9.690;2022-10-12T06:56:48;10.30;99.90
64634;DHT22;51043;52.406;9.690;2022-10-12T06:59:15;10.90;99.90
64634;DHT22;51043;52.406;9.690;2022-10-12T07:01:43;11.60;99.90
64634;DHT22;51043;52.406;9.690;2022-10-12T07:04:10;12.10;99.90
64634;DHT22;51043;52.406;9.690;2022-10-12T07:06:38;12.00;99.90
64634;DHT22;51043;52.406;9.690;2022-10-12T07:09:04;11.40;99.90
64634;DHT22;51043;52.406;9.690;2022-10-12T07:11:31;10.70;99.90
64634;DHT22;51043;52.406;9.690;2022-10-12T07:13:58;10.00;99.90
64634;DHT22;51043;52.406;9.690;2022-10-12T07:16:25;9.40;99.90
64634;DHT22;51043;52.406;9.690;2022-10-12T07:18:52;9.00;99.90
64634;DHT22;51043;52.406;9.690;2022-10-12T07:21:19;8.70;99.90
64634;DHT22;51043;52.406;9.690;2022-10-12T07:23:47;9.30;99.90
64634;DHT22;51043;52.406;9.690;2022-10-12T07:26:14;10.80;99.90
64634;DHT22;51043;52.406;9.690;2022-10-12T07:28:41;12.30;99.90
64634;DHT22;51043;52.406;9.690;2022-10-12T07:31:09;13.90;99.90
64634;DHT22;51043;52.406;9.690;2022-10-12T07:33:37;15.30;99.90
64634;DHT22;51043;52.406;9.690;2022-10-12T07:36:12;16.40;99.90
64634;DHT22;51043;52.406;9.690;2022-10-12T07:38:41;17.50;99.90
64634;DHT22;51043;52.406;9.690;2022-10-12T07:41:13;18.40;99.90
64634;DHT22;51043;52.406;9.690;2022-10-12T07:43:40;19.00;99.90
64634;DHT22;51043;52.406;9.690;2022-10-12T07:46:07;19.70;99.90
64634;DHT22;51043;52.406;9.690;2022-10-12T07:48:34;20.20;99.90
64634;DHT22;51043;52.406;9.690;2022-10-12T07:51:05;20.60;98.50
64634;DHT22;51043;52.406;9.690;2022-10-12T07:53:33;21.00;95.90
64634;DHT22;51043;52.406;9.690;2022-10-12T07:56:01;21.20;94.90
64634;DHT22;51043;52.406;9.690;2022-10-12T07:58:28;21.50;92.90
64634;DHT22;51043;52.406;9.690;2022-10-12T08:01:02;21.70;89.50
64634;DHT22;51043;52.406;9.690;2022-10-12T08:03:29;21.40;86.20
64634;DHT22;51043;52.406;9.690;2022-10-12T08:05:56;20.60;86.40
64634;DHT22;51043;52.406;9.690;2022-10-12T08:08:25;19.90;90.00
64634;DHT22;51043;52.406;9.690;2022-10-12T08:10:52;18.90;91.30
64634;DHT22;51043;52.406;9.690;2022-10-12T08:13:19;17.50;91.90
64634;DHT22;51043;52.406;9.690;2022-10-12T08:15:49;16.50;94.10
64634;DHT22;51043;52.406;9.690;2022-10-12T08:18:16;15.60;97.70
64634;DHT22;51043;52.406;9.690;2022-10-12T08:20:43;15.00;99.90
64634;DHT22;51043;52.406;9.690;2022-10-12T08:23:10;14.20;99.90
64634;DHT22;51043;52.406;9.690;2022-10-12T08:25:41;13.80;99.90
64634;DHT22;51043;52.406;9.690;2022-10-12T08:28:09;13.30;99.90
64634;DHT22;51043;52.406;9.690;2022-10-12T08:30:37;12.80;99.90
64634;DHT22;51043;52.406;9.690;2022-10-12T08:33:04;12.50;99.90
64634;DHT22;51043;52.406;9.690;2022-10-12T08:35:37;12.40;99.90
64634;DHT22;51043;52.406;9.690;2022-10-12T08:38:05;12.30;99.90
64634;DHT22;51043;52.406;9.690;2022-10-12T08:40:35;12.40;99.90
64634;DHT22;51043;52.406;9.690;2022-10-12T08:45:57;12.70;99.90
64634;DHT22;51043;52.406;9.690;2022-10-12T08:48:26;12.70;99.90
64634;DHT22;51043;52.406;9.690;2022-10-12T08:50:58;12.60;99.90
64634;DHT22;51043;52.406;9.690;2022-10-12T08:53:46;12.60;99.90
64634;DHT22;51043;52.406;9.690;2022-10-12T08:56:18;12.50;99.90
64634;DHT22;51043;52.406;9.690;2022-10-12T08:58:47;12.50;99.90
64634;DHT22;51043;52.406;9.690;2022-10-12T09:01:20;12.40;99.90
64634;DHT22;51043;52.406;9.690;2022-10-12T09:06:58;12.30;99.90
64634;DHT22;51043;52.406;9.690;2022-10-12T09:15:22;12.30;99.90
64634;DHT22;51043;52.406;9.690;2022-10-12T09:17:57;12.30;99.90
64634;DHT22;51043;52.406;9.690;2022-10-12T09:20:40;12.40;99.90
64634;DHT22;51043;52.406;9.690;2022-10-12T09:23:31;12.30;99.90
64634;DHT22;51043;52.406;9.690;2022-10-12T09:28:58;12.50;99.90
64634;DHT22;51043;52.406;9.690;2022-10-12T09:34:30;12.80;99.90
64634;DHT22;51043;52.406;9.690;2022-10-12T09:36:57;13.10;99.90
64634;DHT22;51043;52.406;9.690;2022-10-12T09:39:28;13.30;99.90
64634;DHT22;51043;52.406;9.690;2022-10-12T09:41:56;14.20;99.90
64634;DHT22;51043;52.406;9.690;2022-10-12T09:44:51;15.20;99.90
64634;DHT22;51043;52.406;9.690;2022-10-12T09:49:53;16.70;99.90
64634;DHT22;51043;52.406;9.690;2022-10-12T09:52:43;16.90;99.90
64634;DHT22;51043;52.406;9.690;2022-10-12T09:55:19;16.70;99.90
64634;DHT22;51043;52.406;9.690;2022-10-12T09:57:54;16.70;99.90
64634;DHT22;51043;52.406;9.690;2022-10-12T10:00:25;16.70;99.90
64634;DHT22;51043;52.406;9.690;2022-10-12T10:02:54;17.00;99.90
64634;DHT22;51043;52.406;9.690;2022-10-12T10:07:50;18.60;99.90
64634;DHT22;51043;52.406;9.690;2022-10-12T10:10:22;19.60;97.50
64634;DHT22;51043;52.406;9.690;2022-10-12T10:12:58;20.20;94.00
64634;DHT22;51043;52.406;9.690;2022-10-12T10:15:30;20.40;91.90
64634;DHT22;51043;52.406;9.690;2022-10-12T10:18:01;21.00;89.00
64634;DHT22;51043;52.406;9.690;2022-10-12T10:20:32;21.30;82.40
64634;DHT22;51043;52.406;9.690;2022-10-12T10:23:01;20.80;82.10
64634;DHT22;51043;52.406;9.690;2022-10-12T10:25:29;20.80;81.20
64634;DHT22;51043;52.406;9.690;2022-10-12T10:28:21;20.40;82.70
64634;DHT22;51043;52.406;9.690;2022-10-12T10:31:22;20.40;81.30
64634;DHT22;51043;52.406;9.690;2022-10-12T10:36:45;21.40;78.80
64634;DHT22;51043;52.406;9.690;2022-10-12T10:39:36;22.30;74.90
64634;DHT22;51043;52.406;9.690;2022-10-12T10:42:10;22.80;71.20
64634;DHT22;51043;52.406;9.690;2022-10-12T10:44:37;23.70;68.60
64634;DHT22;51043;52.406;9.690;2022-10-12T10:47:09;24.00;63.60
64634;DHT22;51043;52.406;9.690;2022-10-12T10:49:55;23.80;63.20
64634;DHT22;51043;52.406;9.690;2022-10-12T10:52:32;23.40;64.30
64634;DHT22;51043;52.406;9.690;2022-10-12T10:57:39;22.60;66.90
64634;DHT22;51043;52.406;9.690;2022-10-12T11:00:13;22.80;65.00
64634;DHT22;51043;52.406;9.690;2022-10-12T11:03:28;23.20;63.00
64634;DHT22;51043;52.406;9.690;2022-10-12T11:06:26;23.60;63.00
64634;DHT22;51043;52.406;9.690;2022-10-12T11:09:02;24.80;59.60
64634;DHT22;51043;52.406;9.690;2022-10-12T11:11:34;25.40;56.30
64634;DHT22;51043;52.406;9.690;2022-10-12T11:14:14;25.20;57.10
64634;DHT22;51043;52.406;9.690;2022-10-12T11:16:51;24.90;58.60
64634;DHT22;51043;52.406;9.690;2022-10-12T11:19:34;24.60;58.80
64634;DHT22;51043;52.406;9.690;2022-10-12T11:22:09;24.90;59.20
64634;DHT22;51043;52.406;9.690;2022-10-12T11:27:37;25.60;55.60
64634;DHT22;51043;52.406;9.690;2022-10-12T11:30:25;25.40;55.00
64634;DHT22;51043;52.406;9.690;2022-10-12T11:35:30;25.70;54.40
64634;DHT22;51043;52.406;9.690;2022-10-12T11:38:03;26.10;52.70
64634;DHT22;51043;52.406;9.690;2022-10-12T11:40:49;26.10;52.30
64634;DHT22;51043;52.406;9.690;2022-10-12T11:43:48;26.40;51.60
64634;DHT22;51043;52.406;9.690;2022-10-12T11:46:22;26.40;50.50
64634;DHT22;51043;52.406;9.690;2022-10-12T11:49:01;26.30;51.60
64634;DHT22;51043;52.406;9.690;2022-10-12T11:51:31;26.80;50.30
64634;DHT22;51043;52.406;9.690;2022-10-12T11:54:10;27.20;49.20
64634;DHT22;51043;52.406;9.690;2022-10-12T11:56:48;26.80;48.70
64634;DHT22;51043;52.406;9.690;2022-10-12T11:59:53;26.60;49.40
64634;DHT22;51043;52.406;9.690;2022-10-12T12:02:33;26.10;49.70
64634;DHT22;51043;52.406;9.690;2022-10-12T12:05:04;26.80;49.00
64634;DHT22;51043;52.406;9.690;2022-10-12T12:07:48;27.20;48.80
64634;DHT22;51043;52.406;9.690;2022-10-12T12:19:12;25.80;48.80
64634;DHT22;51043;52.406;9.690;2022-10-12T12:22:17;25.60;49.70
64634;DHT22;51043;52.406;9.690;2022-10-12T12:25:04;24.90;50.40
64634;DHT22;51043;52.406;9.690;2022-10-12T12:27:55;22.90;53.90
64634;DHT22;51043;52.406;9.690;2022-10-12T12:30:29;21.30;56.00
64634;DHT22;51043;52.406;9.690;2022-10-12T12:32:59;20.10;59.10
64634;DHT22;51043;52.406;9.690;2022-10-12T12:35:37;19.40;62.50
64634;DHT22;51043;52.406;9.690;2022-10-12T12:40:38;18.10;65.20
64634;DHT22;51043;52.406;9.690;2022-10-12T12:45:55;17.50;68.10
64634;DHT22;51043;52.406;9.690;2022-10-12T12:51:20;17.10;67.00
64634;DHT22;51043;52.406;9.690;2022-10-12T12:54:02;16.90;66.00
64634;DHT22;51043;52.406;9.690;2022-10-12T13:08:23;16.30;70.40
64634;DHT22;51043;52.406;9.690;2022-10-12T13:13:45;16.20;71.10
64634;DHT22;51043;52.406;9.690;2022-10-12T13:16:24;16.00;70.80
64634;DHT22;51043;52.406;9.690;2022-10-12T13:19:15;15.80;73.30
64634;DHT22;51043;52.406;9.690;2022-10-12T13:21:48;15.70;73.30
64634;DHT22;51043;52.406;9.690;2022-10-12T13:24:29;15.70;73.30
64634;DHT22;51043;52.406;9.690;2022-10-12T13:27:26;15.70;72.70
64634;DHT22;51043;52.406;9.690;2022-10-12T13:30:18;15.70;72.50
64634;DHT22;51043;52.406;9.690;2022-10-12T13:40:47;16.00;75.70
64634;DHT22;51043;52.406;9.690;2022-10-12T13:43:41;16.00;74.40
64634;DHT22;51043;52.406;9.690;2022-10-12T13:49:20;15.90;76.70
64634;DHT22;51043;52.406;9.690;2022-10-12T13:51:52;15.80;77.60
64634;DHT22;51043;52.406;9.690;2022-10-12T13:54:25;15.70;75.90
64634;DHT22;51043;52.406;9.690;2022-10-12T13:56:59;15.70;76.10
64634;DHT22;51043;52.406;9.690;2022-10-12T13:59:32;15.60;76.30
64634;DHT22;51043;52.406;9.690;2022-10-12T14:02:01;15.50;76.50
64634;DHT22;51043;52.406;9.690;2022-10-12T14:04:32;15.40;79.30
64634;DHT22;51043;52.406;9.690;2022-10-12T14:07:04;15.30;77.80
64634;DHT22;51043;52.406;9.690;2022-10-12T14:09:56;15.40;76.90
64634;DHT22;51043;52.406;9.690;2022-10-12T14:12:24;15.40;80.00
64634;DHT22;51043;52.406;9.690;2022-10-12T14:14:54;15.30;78.40
64634;DHT22;51043;52.406;9.690;2022-10-12T14:17:21;15.30;78.40
64634;DHT22;51043;52.406;9.690;2022-10-12T14:19:51;15.40;78.30
64634;DHT22;51043;52.406;9.690;2022-10-12T14:22:30;15.30;79.30
64634;DHT22;51043;52.406;9.690;2022-10-12T14:25:12;15.30;80.30
64634;DHT22;51043;52.406;9.690;2022-10-12T14:27:40;15.20;80.30
64634;DHT22;51043;52.406;9.690;2022-10-12T14:30:20;15.20;79.60
64634;DHT22;51043;52.406;9.690;2022-10-12T14:32:49;15.10;81.70
64634;DHT22;51043;52.406;9.690;2022-10-12T14:35:22;15.00;83.60
64634;DHT22;51043;52.406;9.690;2022-10-12T14:37:50;15.00;83.90
64634;DHT22;51043;52.406;9.690;2022-10-12T14:40:28;14.90;83.50
64634;DHT22;51043;52.406;9.690;2022-10-12T14:42:58;14.90;84.30
64634;DHT22;51043;52.406;9.690;2022-10-12T14:45:26;14.90;85.00
64634;DHT22;51043;52.406;9.690;2022-10-12T14:47:53;14.80;85.40
64634;DHT22;51043;52.406;9.690;2022-10-12T14:50:20;14.90;84.50
64634;DHT22;51043;52.406;9.690;2022-10-12T14:52:51;14.90;85.70
64634;DHT22;51043;52.406;9.690;2022-10-12T14:55:25;14.80;86.40
64634;DHT22;51043;52.406;9.690;2022-10-12T14:57:52;14.80;88.40
64634;DHT22;51043;52.406;9.690;2022-10-12T15:00:28;14.80;87.00
64634;DHT22;51043;52.406;9.690;2022-10-12T15:02:56;14.80;88.30
64634;DHT22;51043;52.406;9.690;2022-10-12T15:05:25;14.80;88.70
64634;DHT22;51043;52.406;9.690;2022-10-12T15:07:54;14.80;88.40
64634;DHT22;51043;52.406;9.690;2022-10-12T15:10:22;14.70;90.00
64634;DHT22;51043;52.406;9.690;2022-10-12T15:12:52;14.70;90.50
64634;DHT22;51043;52.406;9.690;2022-10-12T15:15:58;14.70;90.80
64634;DHT22;51043;52.406;9.690;2022-10-12T15:18:18;14.60;91.50
64634;DHT22;51043;52.406;9.690;2022-10-12T15:20:45;14.70;91.80
64634;DHT22;51043;52.406;9.690;2022-10-12T15:23:15;14.70;91.50
64634;DHT22;51043;52.406;9.690;2022-10-12T15:25:55;14.80;92.00
64634;DHT22;51043;52.406;9.690;2022-10-12T15:28:25;14.90;92.00
64634;DHT22;51043;52.406;9.690;2022-10-12T15:30:56;15.00;92.40
64634;DHT22;51043;52.406;9.690;2022-10-12T15:33:42;14.90;92.10
64634;DHT22;51043;52.406;9.690;2022-10-12T15:36:09;14.90;92.10
64634;DHT22;51043;52.406;9.690;2022-10-12T15:38:36;14.70;93.60
64634;DHT22;51043;52.406;9.690;2022-10-12T15:41:03;14.70;92.50
64634;DHT22;51043;52.406;9.690;2022-10-12T15:43:30;14.60;92.50
64634;DHT22;51043;52.406;9.690;2022-10-12T15:45:58;14.50;93.50
64634;DHT22;51043;52.406;9.690;2022-10-12T15:48:27;14.40;93.70
64634;DHT22;51043;52.406;9.690;2022-10-12T15:50:54;14.30;94.50
64634;DHT22;51043;52.406;9.690;2022-10-12T15:53:23;14.00;94.90
64634;DHT22;51043;52.406;9.690;2022-10-12T15:55:52;13.90;95.50
64634;DHT22;51043;52.406;9.690;2022-10-12T15:58:19;13.80;96.20
64634;DHT22;51043;52.406;9.690;2022-10-12T16:00:47;13.60;97.00
64634;DHT22;51043;52.406;9.690;2022-10-12T16:03:16;13.50;98.10
64634;DHT22;51043;52.406;9.690;2022-10-12T16:05:46;13.30;99.10
64634;DHT22;51043;52.406;9.690;2022-10-12T16:08:13;13.10;99.90
64634;DHT22;51043;52.406;9.690;2022-10-12T16:10:42;13.00;99.90
64634;DHT22;51043;52.406;9.690;2022-10-12T16:13:11;13.00;99.90
64634;DHT22;51043;52.406;9.690;2022-10-12T16:15:39;12.90;99.90
64634;DHT22;51043;52.406;9.690;2022-10-12T16:18:07;12.70;99.90
64634;DHT22;51043;52.406;9.690;2022-10-12T16:20:36;12.60;99.90
64634;DHT22;51043;52.406;9.690;2022-10-12T16:23:18;12.50;99.90
64634;DHT22;51043;52.406;9.690;2022-10-12T16:25:45;12.30;99.90
64634;DHT22;51043;52.406;9.690;2022-10-12T16:28:12;12.10;99.90
64634;DHT22;51043;52.406;9.690;2022-10-12T16:30:40;12.00;99.90
64634;DHT22;51043;52.406;9.690;2022-10-12T16:33:07;11.90;99.90
64634;DHT22;51043;52.406;9.690;2022-10-12T16:35:34;11.70;99.90
64634;DHT22;51043;52.406;9.690;2022-10-12T16:38:01;11.50;99.90
64634;DHT22;51043;52.406;9.690;2022-10-12T16:40:28;11.40;99.90
64634;DHT22;51043;52.406;9.690;2022-10-12T16:42:55;11.30;99.90
64634;DHT22;51043;52.406;9.690;2022-10-12T16:45:23;11.20;99.90
64634;DHT22;51043;52.406;9.690;2022-10-12T16:47:51;11.00;99.90
64634;DHT22;51043;52.406;9.690;2022-10-12T16:50:21;10.90;99.90
64634;DHT22;51043;52.406;9.690;2022-10-12T16:52:48;10.80;99.90
64634;DHT22;51043;52.406;9.690;2022-10-12T16:55:15;10.70;99.90
64634;DHT22;51043;52.406;9.690;2022-10-12T16:57:42;10.60;99.90
64634;DHT22;51043;52.406;9.690;2022-10-12T17:00:12;10.50;99.90
64634;DHT22;51043;52.406;9.690;2022-10-12T17:02:39;10.40;99.90
64634;DHT22;51043;52.406;9.690;2022-10-12T17:05:07;10.30;99.90
64634;DHT22;51043;52.406;9.690;2022-10-12T17:07:34;10.20;99.90
64634;DHT22;51043;52.406;9.690;2022-10-12T17:10:01;10.00;99.90
64634;DHT22;51043;52.406;9.690;2022-10-12T17:12:27;9.90;99.90
64634;DHT22;51043;52.406;9.690;2022-10-12T17:14:55;9.80;99.90
64634;DHT22;51043;52.406;9.690;2022-10-12T17:17:22;9.70;99.90
64634;DHT22;51043;52.406;9.690;2022-10-12T17:19:48;9.60;99.90
64634;DHT22;51043;52.406;9.690;2022-10-12T17:22:15;9.50;99.90
64634;DHT22;51043;52.406;9.690;2022-10-12T17:24:42;9.40;99.90
64634;DHT22;51043;52.406;9.690;2022-10-12T17:27:11;9.20;99.90
64634;DHT22;51043;52.406;9.690;2022-10-12T17:29:39;9.10;99.90
64634;DHT22;51043;52.406;9.690;2022-10-12T17:32:08;9.00;99.90
64634;DHT22;51043;52.406;9.690;2022-10-12T17:34:41;9.00;99.90
64634;DHT22;51043;52.406;9.690;2022-10-12T17:37:11;8.90;99.90
64634;DHT22;51043;52.406;9.690;2022-10-12T17:39:44;8.80;99.90